Time;durP1;ratioP1;P1;durP2;ratioP2;P2;SDS_P1;SDS_P2;PMS_P1;PMS_P2;Temp;Humidity;BMP_temperature;BMP_pressure;BME280_temperature;BME280_humidity;BME280_pressure;Samples;Min_cycle;Max_cycle;Signal;HPM_P1;HPM_P2
2023/09/24 00:00:20;;;;;;;3.08;2.10;;;;;;;;;;2090831;28;20041;-59
2023/09/24 00:01:21;;;;;;;3.97;2.38;;;;;;;;;;2090613;28;20053;-59
2023/09/24 00:02:22;;;;;;;4.15;2.70;;;;;;;;;;2090410;28;20514;-59
2023/09/24 00:03:23;;;;;;;4.28;2.55;;;;;;;;;;2090799;28;20128;-58
2023/09/24 00:04:23;;;;;;;3.97;2.50;;;;;;;;;;2090593;28;20102;-58
2023/09/24 00:05:24;;;;;;;5.68;2.47;;;;;;;;;;2090681;28;20037;-58
2023/09/24 00:06:25;;;;;;;5.50;2.47;;;;;;;;;;2090745;28;20052;-59
2023/09/24 00:07:26;;;;;;;7.88;2.70;;;;;;;;;;2090669;28;20469;-59
2023/09/24 00:08:28;;;;;;;4.28;2.15;;;;;;;;;;2089857;28;20053;-58
2023/09/24 00:09:29;;;;;;;5.65;2.42;;;;;;;;;;2090396;28;20045;-58
2023/09/24 00:10:30;;;;;;;5.90;3.45;;;;;;;;;;2090634;28;20040;-58
2023/09/24 00:11:31;;;;;;;5.35;2.45;;;;;;;;;;2090729;28;20060;-58
2023/09/24 00:12:32;;;;;;;6.65;2.92;;;;;;;;;;2090505;28;20041;-58
2023/09/24 00:13:34;;;;;;;7.30;3.33;;;;;;;;;;2090675;28;20033;-58
2023/09/24 00:14:35;;;;;;;4.80;2.40;;;;;;;;;;2090375;28;20137;-59
2023/09/24 00:15:36;;;;;;;4.28;2.80;;;;;;;;;;2090514;28;20074;-57
2023/09/24 00:16:37;;;;;;;5.22;3.17;;;;;;;;;;2090517;28;20060;-59
2023/09/24 00:17:38;;;;;;;5.20;2.85;;;;;;;;;;2090900;28;20045;-58
2023/09/24 00:18:38;;;;;;;3.20;2.28;;;;;;;;;;2090502;28;20041;-57
2023/09/24 00:19:39;;;;;;;4.15;2.38;;;;;;;;;;2090562;28;20067;-57
2023/09/24 00:20:40;;;;;;;4.55;2.90;;;;;;;;;;2090519;28;20029;-57
2023/09/24 00:21:41;;;;;;;5.25;2.80;;;;;;;;;;2089924;28;20032;-57
2023/09/24 00:22:41;;;;;;;6.45;2.70;;;;;;;;;;2089923;28;20140;-58
2023/09/24 00:23:43;;;;;;;4.22;2.80;;;;;;;;;;2090631;28;20048;-56
2023/09/24 00:24:45;;;;;;;4.35;2.75;;;;;;;;;;2090414;28;20044;-58
2023/09/24 00:25:47;;;;;;;5.10;2.72;;;;;;;;;;2090522;28;20045;-59
2023/09/24 00:26:48;;;;;;;5.45;2.65;;;;;;;;;;2090509;28;20488;-57
2023/09/24 00:27:48;;;;;;;3.55;2.47;;;;;;;;;;2090647;28;20025;-58
2023/09/24 00:28:49;;;;;;;4.45;2.80;;;;;;;;;;2090616;28;20032;-57
2023/09/24 00:29:50;;;;;;;4.35;2.70;;;;;;;;;;2090136;28;20044;-58
2023/09/24 00:30:55;;;;;;;5.28;2.40;;;;;;;;;;2081454;28;20041;-58
2023/09/24 00:31:56;;;;;;;5.40;3.00;;;;;;;;;;2082563;28;20060;-57
2023/09/24 00:32:58;;;;;;;3.75;2.83;;;;;;;;;;2088786;28;20431;-59
2023/09/24 00:33:59;;;;;;;5.75;2.95;;;;;;;;;;2089859;28;20358;-57
2023/09/24 00:35:00;;;;;;;6.15;3.13;;;;;;;;;;2090498;28;20044;-57
2023/09/24 00:36:00;;;;;;;4.35;2.65;;;;;;;;;;2090289;28;20044;-57
2023/09/24 00:37:01;;;;;;;6.70;2.95;;;;;;;;;;2090186;28;20057;-57
2023/09/24 00:38:02;;;;;;;5.97;2.70;;;;;;;;;;2090529;28;20045;-58
2023/09/24 00:39:03;;;;;;;6.25;2.80;;;;;;;;;;2089978;28;20087;-58
2023/09/24 00:40:05;;;;;;;5.22;3.13;;;;;;;;;;2090478;28;20039;-58
2023/09/24 00:41:05;;;;;;;5.95;2.85;;;;;;;;;;2089412;28;20041;-57
2023/09/24 00:42:09;;;;;;;4.65;3.00;;;;;;;;;;2089775;28;20044;-58
2023/09/24 00:43:26;;;;;;;4.35;3.00;;;;;;;;;;2090060;28;20045;-57
2023/09/24 00:44:26;;;;;;;5.47;3.05;;;;;;;;;;2090385;28;20040;-57
2023/09/24 00:45:28;;;;;;;5.57;3.20;;;;;;;;;;2090123;28;20408;-57
2023/09/24 00:46:30;;;;;;;6.85;3.35;;;;;;;;;;2089651;28;20401;-59
2023/09/24 00:47:31;;;;;;;6.53;3.78;;;;;;;;;;2081335;28;20057;-58
2023/09/24 00:48:32;;;;;;;4.80;3.38;;;;;;;;;;2090100;28;20457;-58
2023/09/24 00:49:33;;;;;;;5.07;3.75;;;;;;;;;;2090059;28;20055;-58
2023/09/24 00:50:41;;;;;;;4.80;3.40;;;;;;;;;;2089794;28;20052;-59
2023/09/24 00:51:42;;;;;;;5.70;3.38;;;;;;;;;;2089840;28;20040;-58
2023/09/24 00:52:42;;;;;;;5.45;3.65;;;;;;;;;;2073098;28;20049;-59
2023/09/24 00:53:43;;;;;;;5.13;3.38;;;;;;;;;;2081128;28;20118;-59
2023/09/24 00:54:44;;;;;;;5.43;3.38;;;;;;;;;;2098174;28;20033;-59
2023/09/24 00:55:44;;;;;;;5.32;3.35;;;;;;;;;;2089705;28;20033;-59
2023/09/24 00:56:45;;;;;;;6.45;3.40;;;;;;;;;;2080768;28;20429;-58
2023/09/24 00:57:47;;;;;;;7.20;3.65;;;;;;;;;;2089803;28;20040;-59
2023/09/24 00:58:50;;;;;;;6.28;3.63;;;;;;;;;;2089237;28;20036;-59
2023/09/24 00:59:51;;;;;;;5.95;3.40;;;;;;;;;;2081911;28;20429;-59
2023/09/24 01:00:52;;;;;;;5.07;3.40;;;;;;;;;;2089177;28;20057;-59
2023/09/24 01:01:53;;;;;;;5.20;3.05;;;;;;;;;;2089596;28;20425;-59
2023/09/24 01:02:54;;;;;;;5.68;3.20;;;;;;;;;;2081079;28;20171;-59
2023/09/24 01:03:55;;;;;;;5.07;3.33;;;;;;;;;;2090085;28;20028;-59
2023/09/24 01:04:56;;;;;;;5.35;3.17;;;;;;;;;;2089362;28;20045;-59
2023/09/24 01:05:56;;;;;;;4.22;2.80;;;;;;;;;;2089150;28;20662;-59
2023/09/24 01:06:57;;;;;;;3.58;2.47;;;;;;;;;;2089924;28;20040;-59
2023/09/24 01:07:58;;;;;;;4.50;2.72;;;;;;;;;;2089962;28;20040;-59
2023/09/24 01:08:59;;;;;;;5.07;3.00;;;;;;;;;;2090442;28;20037;-59
2023/09/24 01:09:59;;;;;;;6.32;3.22;;;;;;;;;;2081625;28;20501;-59
2023/09/24 01:11:01;;;;;;;5.88;3.67;;;;;;;;;;2081339;28;20052;-58
2023/09/24 01:12:03;;;;;;;6.65;3.30;;;;;;;;;;2089902;28;20052;-59
2023/09/24 01:13:05;;;;;;;3.95;2.83;;;;;;;;;;2081564;28;20053;-59
2023/09/24 01:14:07;;;;;;;5.50;3.00;;;;;;;;;;2089550;28;20044;-58
2023/09/24 01:15:14;;;;;;;5.32;3.45;;;;;;;;;;2089995;28;20046;-58
2023/09/24 01:16:15;;;;;;;6.38;3.67;;;;;;;;;;2090381;28;20044;-58
2023/09/24 01:17:17;;;;;;;4.35;3.13;;;;;;;;;;2090262;28;20041;-58
2023/09/24 01:18:18;;;;;;;5.80;3.40;;;;;;;;;;2090276;28;20040;-58
2023/09/24 01:19:21;;;;;;;5.07;3.40;;;;;;;;;;2090487;28;20044;-59
2023/09/24 01:20:24;;;;;;;5.82;3.80;;;;;;;;;;2090163;28;20049;-59
2023/09/24 01:21:26;;;;;;;5.88;3.50;;;;;;;;;;2089353;28;20044;-58
2023/09/24 01:22:30;;;;;;;6.28;3.30;;;;;;;;;;2081351;28;20033;-59
2023/09/24 01:23:32;;;;;;;6.82;4.00;;;;;;;;;;2082069;28;20049;-59
2023/09/24 01:24:32;;;;;;;5.55;3.83;;;;;;;;;;2081450;28;20053;-63
2023/09/24 01:25:35;;;;;;;7.93;4.45;;;;;;;;;;2089095;28;20425;-59
2023/09/24 01:26:36;;;;;;;5.55;3.97;;;;;;;;;;2090210;28;20032;-59
2023/09/24 01:27:36;;;;;;;6.32;4.47;;;;;;;;;;2089792;28;20048;-59
2023/09/24 01:28:37;;;;;;;6.55;4.45;;;;;;;;;;2090148;28;20434;-59
2023/09/24 01:29:38;;;;;;;10.75;4.68;;;;;;;;;;2089836;28;20132;-59
2023/09/24 01:30:39;;;;;;;9.65;4.38;;;;;;;;;;2088599;28;20041;-59
2023/09/24 01:31:40;;;;;;;5.90;4.15;;;;;;;;;;2089570;28;20060;-58
2023/09/24 01:32:41;;;;;;;8.88;4.60;;;;;;;;;;2089794;28;20492;-59
2023/09/24 01:33:41;;;;;;;5.43;4.00;;;;;;;;;;2091188;28;20100;-58
2023/09/24 01:34:44;;;;;;;6.65;4.68;;;;;;;;;;2092224;28;20049;-58
2023/09/24 01:35:45;;;;;;;7.95;4.00;;;;;;;;;;2090916;28;20041;-59
2023/09/24 01:36:46;;;;;;;8.38;4.13;;;;;;;;;;2090502;28;20072;-59
2023/09/24 01:37:47;;;;;;;7.20;4.75;;;;;;;;;;2091144;28;20048;-59
2023/09/24 01:38:48;;;;;;;7.05;4.60;;;;;;;;;;2091241;28;20025;-58
2023/09/24 01:39:51;;;;;;;6.70;4.22;;;;;;;;;;2091943;28;20551;-59
2023/09/24 01:40:53;;;;;;;6.00;4.38;;;;;;;;;;2091796;28;20052;-59
2023/09/24 01:41:54;;;;;;;6.97;4.70;;;;;;;;;;2091728;28;20040;-59
2023/09/24 01:42:57;;;;;;;6.25;4.13;;;;;;;;;;2082472;28;20049;-58
2023/09/24 01:43:59;;;;;;;7.00;4.68;;;;;;;;;;2083225;28;20041;-59
2023/09/24 01:44:59;;;;;;;7.03;4.18;;;;;;;;;;2091654;28;20143;-59
2023/09/24 01:46:05;;;;;;;7.82;4.80;;;;;;;;;;2091792;28;20115;-59
2023/09/24 01:47:05;;;;;;;6.32;4.53;;;;;;;;;;2091041;28;20163;-59
2023/09/24 01:48:07;;;;;;;7.38;4.10;;;;;;;;;;2090780;28;20519;-60
2023/09/24 01:49:10;;;;;;;7.05;4.60;;;;;;;;;;2091473;28;20044;-59
2023/09/24 01:50:10;;;;;;;7.22;5.20;;;;;;;;;;2091192;28;20049;-59
2023/09/24 01:51:12;;;;;;;7.30;5.00;;;;;;;;;;2091236;28;20032;-59
2023/09/24 01:52:13;;;;;;;7.60;4.82;;;;;;;;;;2090759;28;20461;-59
2023/09/24 01:53:14;;;;;;;6.70;4.85;;;;;;;;;;2091339;28;20056;-59
2023/09/24 01:54:15;;;;;;;8.85;4.90;;;;;;;;;;2091026;28;20075;-58
2023/09/24 01:55:16;;;;;;;7.63;4.57;;;;;;;;;;2091287;28;20037;-59
2023/09/24 01:56:18;;;;;;;5.43;4.15;;;;;;;;;;2090941;28;20037;-58
2023/09/24 01:57:19;;;;;;;6.47;4.68;;;;;;;;;;2091104;28;20057;-59
2023/09/24 01:58:19;;;;;;;6.68;4.40;;;;;;;;;;2090997;28;20072;-59
2023/09/24 01:59:20;;;;;;;5.97;4.20;;;;;;;;;;2082690;28;20057;-59
2023/09/24 02:00:25;;;;;;;7.18;3.75;;;;;;;;;;2082518;28;20500;-59
2023/09/24 02:01:25;;;;;;;7.05;4.40;;;;;;;;;;2090803;28;20085;-57
2023/09/24 02:02:28;;;;;;;6.50;4.60;;;;;;;;;;2090947;28;20095;-60
2023/09/24 02:03:29;;;;;;;6.13;4.57;;;;;;;;;;2090693;28;20052;-59
2023/09/24 02:04:30;;;;;;;6.15;4.40;;;;;;;;;;2092413;28;20453;-56
2023/09/24 02:05:34;;;;;;;6.70;4.85;;;;;;;;;;2091310;28;20041;-57
2023/09/24 02:06:35;;;;;;;6.05;4.30;;;;;;;;;;2091343;28;20501;-59
2023/09/24 02:07:40;;;;;;;4.95;4.05;;;;;;;;;;2090602;28;20041;-57
2023/09/24 02:08:41;;;;;;;8.32;4.78;;;;;;;;;;2090584;28;20484;-59
2023/09/24 02:09:41;;;;;;;7.95;4.15;;;;;;;;;;2090575;28;20045;-59
2023/09/24 02:10:42;;;;;;;7.43;4.45;;;;;;;;;;2090718;28;20528;-58
2023/09/24 02:11:43;;;;;;;7.07;4.60;;;;;;;;;;2091133;28;20495;-59
2023/09/24 02:12:45;;;;;;;6.65;4.35;;;;;;;;;;2091749;28;20049;-59
2023/09/24 02:13:46;;;;;;;7.88;4.80;;;;;;;;;;2090925;28;20068;-59
2023/09/24 02:14:47;;;;;;;5.32;4.13;;;;;;;;;;2090843;28;20511;-59
2023/09/24 02:15:48;;;;;;;7.20;4.90;;;;;;;;;;2091589;28;20036;-57
2023/09/24 02:16:50;;;;;;;9.30;4.43;;;;;;;;;;2091522;28;20028;-58
2023/09/24 02:17:51;;;;;;;6.22;4.13;;;;;;;;;;2091536;28;20040;-58
2023/09/24 02:18:52;;;;;;;5.78;3.63;;;;;;;;;;2090561;28;20445;-57
2023/09/24 02:19:55;;;;;;;5.63;4.20;;;;;;;;;;2090946;28;20496;-59
2023/09/24 02:20:58;;;;;;;5.45;3.90;;;;;;;;;;2091552;28;20041;-57
2023/09/24 02:21:59;;;;;;;9.05;4.03;;;;;;;;;;2090743;28;20033;-60
2023/09/24 02:23:01;;;;;;;6.22;4.07;;;;;;;;;;2082490;28;20041;-59
2023/09/24 02:24:01;;;;;;;5.30;3.90;;;;;;;;;;2090977;28;20406;-58
2023/09/24 02:25:03;;;;;;;9.13;3.70;;;;;;;;;;2091634;28;20166;-57
2023/09/24 02:26:04;;;;;;;4.60;3.38;;;;;;;;;;2090843;28;20036;-58
2023/09/24 02:27:06;;;;;;;5.30;3.70;;;;;;;;;;2090766;28;20044;-59
2023/09/24 02:28:07;;;;;;;5.00;3.15;;;;;;;;;;2090456;28;20072;-57
2023/09/24 02:29:07;;;;;;;4.70;3.10;;;;;;;;;;2091057;28;20048;-58
2023/09/24 02:30:10;;;;;;;4.68;2.90;;;;;;;;;;2091364;28;20037;-58
2023/09/24 02:31:11;;;;;;;6.72;3.47;;;;;;;;;;2091409;28;20037;-58
2023/09/24 02:32:12;;;;;;;4.53;3.42;;;;;;;;;;2091419;28;20045;-57
2023/09/24 02:33:13;;;;;;;4.55;3.22;;;;;;;;;;2090475;28;20056;-58
2023/09/24 02:34:14;;;;;;;5.28;3.30;;;;;;;;;;2090908;28;20073;-57
2023/09/24 02:35:15;;;;;;;6.47;3.42;;;;;;;;;;2090299;28;20036;-58
2023/09/24 02:36:15;;;;;;;6.28;3.50;;;;;;;;;;2090768;28;20037;-56
2023/09/24 02:37:16;;;;;;;7.28;3.53;;;;;;;;;;2090728;28;20511;-59
2023/09/24 02:38:17;;;;;;;8.93;3.63;;;;;;;;;;2090725;28;20044;-58
2023/09/24 02:39:17;;;;;;;5.82;3.33;;;;;;;;;;2091657;28;20045;-58
2023/09/24 02:40:23;;;;;;;4.95;2.90;;;;;;;;;;2090713;28;20049;-59
2023/09/24 02:41:24;;;;;;;5.30;3.20;;;;;;;;;;2090715;28;20452;-59
2023/09/24 02:42:26;;;;;;;6.47;3.47;;;;;;;;;;2090505;28;20045;-58
2023/09/24 02:43:29;;;;;;;5.28;3.47;;;;;;;;;;2091404;28;20040;-59
2023/09/24 02:44:30;;;;;;;5.07;3.35;;;;;;;;;;2089313;28;20056;-59
2023/09/24 02:45:31;;;;;;;5.70;3.75;;;;;;;;;;2090949;28;20037;-56
2023/09/24 02:46:32;;;;;;;5.57;3.22;;;;;;;;;;2090429;28;20127;-57
2023/09/24 02:47:33;;;;;;;6.22;3.30;;;;;;;;;;2091296;28;20034;-59
2023/09/24 02:48:35;;;;;;;5.28;3.20;;;;;;;;;;2090941;28;20060;-59
2023/09/24 02:49:36;;;;;;;5.85;3.90;;;;;;;;;;2091439;28;20029;-59
2023/09/24 02:50:37;;;;;;;6.10;3.78;;;;;;;;;;2091154;28;20032;-58
2023/09/24 02:51:37;;;;;;;5.68;3.38;;;;;;;;;;2090626;28;20037;-57
2023/09/24 02:52:39;;;;;;;7.47;3.60;;;;;;;;;;2082439;28;20402;-58
2023/09/24 02:53:41;;;;;;;6.68;3.30;;;;;;;;;;2090705;28;20049;-59
2023/09/24 02:54:43;;;;;;;5.35;3.50;;;;;;;;;;2090666;28;20037;-59
2023/09/24 02:55:44;;;;;;;5.18;3.70;;;;;;;;;;2090145;28;20041;-59
2023/09/24 02:56:45;;;;;;;5.95;3.50;;;;;;;;;;2090140;28;20048;-59
2023/09/24 02:57:46;;;;;;;6.05;3.97;;;;;;;;;;2090764;28;20048;-58
2023/09/24 02:58:47;;;;;;;6.38;3.63;;;;;;;;;;2091013;28;20032;-59
2023/09/24 02:59:48;;;;;;;6.65;3.20;;;;;;;;;;2090573;28;20048;-57
2023/09/24 03:00:50;;;;;;;4.68;3.13;;;;;;;;;;2082317;28;20056;-59
2023/09/24 03:01:52;;;;;;;5.03;3.00;;;;;;;;;;2090190;28;20413;-59
2023/09/24 03:02:58;;;;;;;5.18;3.08;;;;;;;;;;2091215;28;20052;-59
2023/09/24 03:03:59;;;;;;;6.35;3.50;;;;;;;;;;2091274;28;20120;-59
2023/09/24 03:05:00;;;;;;;7.07;3.20;;;;;;;;;;2090502;28;20040;-59
2023/09/24 03:06:01;;;;;;;4.57;3.17;;;;;;;;;;2082417;28;20124;-59
2023/09/24 03:07:03;;;;;;;5.20;3.15;;;;;;;;;;2090698;28;20033;-59
2023/09/24 03:08:05;;;;;;;5.82;3.40;;;;;;;;;;2090147;28;20037;-59
2023/09/24 03:09:06;;;;;;;5.97;3.60;;;;;;;;;;2090623;28;20088;-58
2023/09/24 03:10:08;;;;;;;4.90;3.10;;;;;;;;;;2098836;28;20044;-59
2023/09/24 03:11:14;;;;;;;7.13;3.63;;;;;;;;;;2090888;28;20044;-59
2023/09/24 03:12:15;;;;;;;5.45;3.40;;;;;;;;;;2090282;28;20037;-59
2023/09/24 03:13:15;;;;;;;5.35;3.58;;;;;;;;;;2082387;28;20038;-58
2023/09/24 03:14:16;;;;;;;5.38;3.28;;;;;;;;;;2090781;28;20029;-58
2023/09/24 03:15:17;;;;;;;6.38;3.50;;;;;;;;;;2091155;28;20033;-59
2023/09/24 03:16:18;;;;;;;6.63;3.60;;;;;;;;;;2090978;28;20081;-58
2023/09/24 03:17:18;;;;;;;5.35;3.70;;;;;;;;;;2090560;28;20040;-58
2023/09/24 03:18:19;;;;;;;5.45;3.90;;;;;;;;;;2090290;28;20060;-59
2023/09/24 03:19:20;;;;;;;6.38;3.50;;;;;;;;;;2091135;28;20041;-59
2023/09/24 03:20:20;;;;;;;5.57;4.13;;;;;;;;;;2091204;28;20446;-59
2023/09/24 03:21:21;;;;;;;5.50;4.10;;;;;;;;;;2093022;28;20398;-59
2023/09/24 03:22:22;;;;;;;5.18;3.75;;;;;;;;;;2092711;28;20033;-57
2023/09/24 03:23:23;;;;;;;7.82;3.92;;;;;;;;;;2093264;28;20049;-57
2023/09/24 03:24:23;;;;;;;10.15;4.43;;;;;;;;;;2091824;28;20569;-57
2023/09/24 03:25:24;;;;;;;6.05;4.00;;;;;;;;;;2092200;28;20400;-57
2023/09/24 03:26:25;;;;;;;7.10;4.22;;;;;;;;;;2091139;28;20481;-59
2023/09/24 03:27:26;;;;;;;7.10;4.28;;;;;;;;;;2082614;28;20037;-59
2023/09/24 03:28:27;;;;;;;5.80;4.13;;;;;;;;;;2082531;28;20069;-60
2023/09/24 03:29:28;;;;;;;5.88;4.00;;;;;;;;;;2090490;28;20041;-57
2023/09/24 03:30:29;;;;;;;7.05;4.32;;;;;;;;;;2090575;28;20056;-58
2023/09/24 03:31:32;;;;;;;7.47;4.75;;;;;;;;;;2089966;28;20144;-57
2023/09/24 03:32:34;;;;;;;6.43;3.97;;;;;;;;;;2089984;28;20039;-57
2023/09/24 03:33:35;;;;;;;6.60;4.18;;;;;;;;;;2090265;28;20135;-59
2023/09/24 03:34:36;;;;;;;5.32;4.13;;;;;;;;;;2090937;28;20033;-59
2023/09/24 03:35:36;;;;;;;6.18;4.32;;;;;;;;;;2090899;28;20457;-57
2023/09/24 03:36:37;;;;;;;4.82;3.88;;;;;;;;;;2082258;28;20041;-57
2023/09/24 03:37:40;;;;;;;7.78;4.03;;;;;;;;;;2082093;28;20417;-57
2023/09/24 03:38:42;;;;;;;10.25;4.50;;;;;;;;;;2090328;28;20044;-58
2023/09/24 03:39:43;;;;;;;5.75;4.35;;;;;;;;;;2081987;28;20037;-59
2023/09/24 03:40:45;;;;;;;5.55;4.40;;;;;;;;;;2089742;28;20052;-59
2023/09/24 03:41:45;;;;;;;8.77;4.45;;;;;;;;;;2090601;28;20037;-59
2023/09/24 03:42:47;;;;;;;10.70;5.25;;;;;;;;;;2090167;28;20462;-59
2023/09/24 03:43:47;;;;;;;6.38;4.57;;;;;;;;;;2081905;28;20049;-58
2023/09/24 03:44:48;;;;;;;5.57;3.97;;;;;;;;;;2081562;28;20482;-59
2023/09/24 03:45:49;;;;;;;7.13;4.80;;;;;;;;;;2081962;28;20037;-57
2023/09/24 03:46:50;;;;;;;6.93;5.20;;;;;;;;;;2090211;28;20029;-58
2023/09/24 03:47:51;;;;;;;7.00;5.05;;;;;;;;;;2091825;28;20397;-58
2023/09/24 03:48:52;;;;;;;6.90;5.35;;;;;;;;;;2090064;28;20057;-59
2023/09/24 03:49:53;;;;;;;7.70;5.15;;;;;;;;;;2090241;28;20083;-59
2023/09/24 03:50:54;;;;;;;6.05;4.93;;;;;;;;;;2089866;28;20067;-59
2023/09/24 03:51:55;;;;;;;9.82;5.15;;;;;;;;;;2090118;28;20044;-57
2023/09/24 03:52:56;;;;;;;9.13;5.43;;;;;;;;;;2090007;28;20037;-59
2023/09/24 03:53:58;;;;;;;8.38;5.25;;;;;;;;;;2090847;28;20051;-59
2023/09/24 03:54:59;;;;;;;6.65;5.25;;;;;;;;;;2090090;28;20032;-58
2023/09/24 03:56:00;;;;;;;8.30;5.80;;;;;;;;;;2090022;28;20488;-59
2023/09/24 03:57:01;;;;;;;7.82;5.25;;;;;;;;;;2098659;28;20074;-59
2023/09/24 03:58:02;;;;;;;8.48;5.55;;;;;;;;;;2089602;28;20052;-59
2023/09/24 03:59:03;;;;;;;7.38;5.30;;;;;;;;;;2089903;28;20053;-58
2023/09/24 04:00:20;;;;;;;7.28;6.22;;;;;;;;;;2089726;28;20053;-59
2023/09/24 04:01:22;;;;;;;7.88;5.95;;;;;;;;;;2090717;28;20036;-58
2023/09/24 04:02:23;;;;;;;9.75;6.00;;;;;;;;;;2090605;28;20393;-58
2023/09/24 04:03:24;;;;;;;8.73;6.25;;;;;;;;;;2090016;28;20098;-58
2023/09/24 04:04:26;;;;;;;9.30;6.88;;;;;;;;;;2082011;28;20504;-58
2023/09/24 04:05:27;;;;;;;10.30;6.88;;;;;;;;;;2081870;28;20048;-60
2023/09/24 04:06:28;;;;;;;10.70;6.75;;;;;;;;;;2090029;28;20484;-58
2023/09/24 04:07:29;;;;;;;8.23;6.75;;;;;;;;;;2090175;28;20033;-58
2023/09/24 04:08:30;;;;;;;10.68;6.97;;;;;;;;;;2089847;28;20124;-58
2023/09/24 04:09:33;;;;;;;9.90;7.57;;;;;;;;;;2090649;28;20396;-58
2023/09/24 04:10:33;;;;;;;8.90;6.93;;;;;;;;;;2090764;28;20029;-58
2023/09/24 04:11:34;;;;;;;9.10;7.28;;;;;;;;;;2090264;28;20044;-58
2023/09/24 04:12:35;;;;;;;12.00;7.78;;;;;;;;;;2090802;28;20037;-58
2023/09/24 04:13:36;;;;;;;10.25;7.28;;;;;;;;;;2090842;28;20032;-58
2023/09/24 04:14:36;;;;;;;9.32;7.00;;;;;;;;;;2090458;28;20029;-58
2023/09/24 04:15:37;;;;;;;10.48;6.97;;;;;;;;;;2090323;28;20052;-58
2023/09/24 04:16:38;;;;;;;9.75;7.30;;;;;;;;;;2090436;28;20029;-57
2023/09/24 04:17:39;;;;;;;10.07;7.78;;;;;;;;;;2090450;28;20048;-58
2023/09/24 04:18:44;;;;;;;10.02;7.40;;;;;;;;;;2090487;28;20041;-58
2023/09/24 04:19:45;;;;;;;8.82;7.75;;;;;;;;;;2090538;28;20040;-59
2023/09/24 04:20:45;;;;;;;12.07;7.88;;;;;;;;;;2090597;28;20036;-58
2023/09/24 04:21:46;;;;;;;12.13;7.53;;;;;;;;;;2090584;28;20425;-59
2023/09/24 04:22:47;;;;;;;11.65;7.70;;;;;;;;;;2090289;28;20037;-59
2023/09/24 04:23:48;;;;;;;11.30;7.57;;;;;;;;;;2090874;28;20132;-59
2023/09/24 04:24:53;;;;;;;9.48;6.97;;;;;;;;;;2090462;28;20045;-59
2023/09/24 04:25:54;;;;;;;9.80;7.45;;;;;;;;;;2090731;28;20048;-59
2023/09/24 04:26:55;;;;;;;9.60;7.18;;;;;;;;;;2090577;28;20464;-59
2023/09/24 04:27:55;;;;;;;8.20;6.60;;;;;;;;;;2090603;28;20032;-58
2023/09/24 04:28:57;;;;;;;11.18;7.55;;;;;;;;;;2090351;28;20385;-58
2023/09/24 04:29:58;;;;;;;10.95;7.78;;;;;;;;;;2090348;28;20048;-58
2023/09/24 04:30:58;;;;;;;9.45;7.38;;;;;;;;;;2090797;28;20044;-58
2023/09/24 04:31:59;;;;;;;10.23;7.28;;;;;;;;;;2090711;28;20049;-58
2023/09/24 04:33:02;;;;;;;10.13;7.80;;;;;;;;;;2090463;28;20037;-58
2023/09/24 04:34:02;;;;;;;10.43;7.72;;;;;;;;;;2090647;28;20465;-59
2023/09/24 04:35:03;;;;;;;11.65;8.25;;;;;;;;;;2090242;28;20049;-59
2023/09/24 04:36:05;;;;;;;8.93;7.70;;;;;;;;;;2090365;28;20065;-59
2023/09/24 04:37:06;;;;;;;9.05;8.07;;;;;;;;;;2090621;28;20040;-59
2023/09/24 04:38:07;;;;;;;9.30;7.45;;;;;;;;;;2090574;28;20128;-59
2023/09/24 04:39:11;;;;;;;10.40;7.93;;;;;;;;;;2090264;28;20397;-58
2023/09/24 04:40:14;;;;;;;11.27;8.25;;;;;;;;;;2090771;28;20036;-58
2023/09/24 04:41:15;;;;;;;12.90;8.65;;;;;;;;;;2090339;28;20056;-59
2023/09/24 04:42:15;;;;;;;10.93;8.95;;;;;;;;;;2090425;28;20048;-59
2023/09/24 04:43:17;;;;;;;11.75;8.65;;;;;;;;;;2090541;28;20044;-58
2023/09/24 04:44:18;;;;;;;10.65;8.43;;;;;;;;;;2090328;28;20082;-59
2023/09/24 04:45:19;;;;;;;11.35;8.73;;;;;;;;;;2090501;28;20032;-58
2023/09/24 04:46:20;;;;;;;11.45;9.73;;;;;;;;;;2090423;28;20065;-59
2023/09/24 04:47:21;;;;;;;11.45;9.35;;;;;;;;;;2090324;28;20063;-58
2023/09/24 04:48:22;;;;;;;12.90;9.05;;;;;;;;;;2090242;28;20485;-59
2023/09/24 04:49:22;;;;;;;15.77;10.50;;;;;;;;;;2090838;28;20044;-59
2023/09/24 04:50:25;;;;;;;13.82;10.05;;;;;;;;;;2090408;28;20055;-59
2023/09/24 04:51:26;;;;;;;14.80;11.20;;;;;;;;;;2090426;28;20052;-58
2023/09/24 04:52:26;;;;;;;12.55;10.63;;;;;;;;;;2089689;28;20476;-58
2023/09/24 04:53:27;;;;;;;16.13;11.13;;;;;;;;;;2089673;28;20045;-58
2023/09/24 04:54:28;;;;;;;16.98;11.77;;;;;;;;;;2090431;28;20154;-58
2023/09/24 04:55:29;;;;;;;16.13;12.05;;;;;;;;;;2090343;28;20040;-59
2023/09/24 04:56:29;;;;;;;19.42;11.93;;;;;;;;;;2090587;28;20040;-59
2023/09/24 04:57:30;;;;;;;17.25;11.98;;;;;;;;;;2090304;28;20068;-59
2023/09/24 04:58:31;;;;;;;14.20;11.70;;;;;;;;;;2090409;28;20041;-58
2023/09/24 04:59:32;;;;;;;16.67;12.80;;;;;;;;;;2090179;28;20358;-59
2023/09/24 05:00:33;;;;;;;15.73;11.35;;;;;;;;;;2090603;28;20461;-58
2023/09/24 05:01:33;;;;;;;14.10;11.82;;;;;;;;;;2090228;28;20062;-58
2023/09/24 05:02:34;;;;;;;14.95;11.77;;;;;;;;;;2090554;28;20385;-59
2023/09/24 05:03:35;;;;;;;15.27;12.80;;;;;;;;;;2090021;28;20056;-58
2023/09/24 05:04:36;;;;;;;13.38;11.80;;;;;;;;;;2090155;28;20040;-59
2023/09/24 05:05:40;;;;;;;15.10;12.02;;;;;;;;;;2090325;28;20119;-58
2023/09/24 05:06:41;;;;;;;16.15;11.68;;;;;;;;;;2090293;28;20048;-58
2023/09/24 05:07:42;;;;;;;16.65;12.10;;;;;;;;;;2090003;28;20051;-59
2023/09/24 05:08:43;;;;;;;13.43;10.98;;;;;;;;;;2090390;28;20526;-58
2023/09/24 05:09:43;;;;;;;14.93;11.68;;;;;;;;;;2090330;28;20025;-58
2023/09/24 05:10:44;;;;;;;14.68;11.60;;;;;;;;;;2090316;28;20382;-58
2023/09/24 05:11:45;;;;;;;13.68;11.45;;;;;;;;;;2090361;28;20485;-59
2023/09/24 05:12:47;;;;;;;16.75;11.27;;;;;;;;;;2090300;28;20056;-58
2023/09/24 05:13:47;;;;;;;15.10;11.65;;;;;;;;;;2090310;28;20041;-58
2023/09/24 05:14:48;;;;;;;16.40;11.68;;;;;;;;;;2090189;28;20045;-58
2023/09/24 05:15:53;;;;;;;16.92;12.88;;;;;;;;;;2089848;28;20040;-58
2023/09/24 05:16:54;;;;;;;14.18;11.52;;;;;;;;;;2090364;28;20063;-58
2023/09/24 05:17:55;;;;;;;15.30;12.48;;;;;;;;;;2090210;28;20037;-58
2023/09/24 05:18:56;;;;;;;14.18;11.50;;;;;;;;;;2090080;28;20064;-58
2023/09/24 05:19:57;;;;;;;15.77;12.00;;;;;;;;;;2090407;28;20045;-58
2023/09/24 05:20:58;;;;;;;36.85;12.20;;;;;;;;;;2089778;28;20140;-58
2023/09/24 05:21:58;;;;;;;14.63;10.23;;;;;;;;;;2090042;28;20036;-58
2023/09/24 05:23:00;;;;;;;12.35;10.02;;;;;;;;;;2090545;28;20029;-58
2023/09/24 05:24:03;;;;;;;16.70;9.80;;;;;;;;;;2089832;28;20067;-58
2023/09/24 05:25:04;;;;;;;11.75;8.85;;;;;;;;;;2090209;28;20052;-58
2023/09/24 05:26:04;;;;;;;11.23;8.63;;;;;;;;;;2090408;28;20431;-58
2023/09/24 05:27:05;;;;;;;10.43;8.20;;;;;;;;;;2089553;28;20049;-58
2023/09/24 05:28:06;;;;;;;9.10;6.88;;;;;;;;;;2089626;28;20512;-58
2023/09/24 05:29:06;;;;;;;10.68;6.20;;;;;;;;;;2090058;28;20067;-59
2023/09/24 05:30:08;;;;;;;7.50;5.55;;;;;;;;;;2089884;28;20472;-58
2023/09/24 05:31:08;;;;;;;9.23;5.85;;;;;;;;;;2089917;28;20040;-58
2023/09/24 05:32:09;;;;;;;6.93;4.65;;;;;;;;;;2090092;28;20044;-59
2023/09/24 05:33:10;;;;;;;9.68;5.40;;;;;;;;;;2090130;28;20037;-59
2023/09/24 05:34:11;;;;;;;8.35;4.47;;;;;;;;;;2090125;28;20381;-59
2023/09/24 05:35:11;;;;;;;6.47;4.65;;;;;;;;;;2090112;28;20072;-62
2023/09/24 05:36:12;;;;;;;8.30;4.32;;;;;;;;;;2090548;28;20041;-58
2023/09/24 05:37:13;;;;;;;5.60;3.92;;;;;;;;;;2090304;28;20428;-59
2023/09/24 05:38:14;;;;;;;8.57;3.75;;;;;;;;;;2090378;28;20041;-58
2023/09/24 05:39:15;;;;;;;5.80;3.58;;;;;;;;;;2090039;28;20060;-59
2023/09/24 05:40:16;;;;;;;7.07;3.60;;;;;;;;;;2090230;28;20508;-59
2023/09/24 05:41:16;;;;;;;3.88;2.85;;;;;;;;;;2090079;28;20083;-59
2023/09/24 05:42:17;;;;;;;6.68;3.30;;;;;;;;;;2089872;28;20071;-59
2023/09/24 05:43:18;;;;;;;8.23;2.40;;;;;;;;;;2090371;28;20052;-59
2023/09/24 05:44:20;;;;;;;3.88;2.28;;;;;;;;;;2089980;28;20041;-59
2023/09/24 05:45:21;;;;;;;5.68;2.90;;;;;;;;;;2089966;28;20049;-58
2023/09/24 05:46:22;;;;;;;4.15;2.35;;;;;;;;;;2090062;28;20369;-59
2023/09/24 05:47:22;;;;;;;5.38;2.45;;;;;;;;;;2090289;28;20056;-58
2023/09/24 05:48:23;;;;;;;5.30;2.22;;;;;;;;;;2089829;28;20057;-59
2023/09/24 05:49:24;;;;;;;5.18;2.17;;;;;;;;;;2090104;28;20495;-59
2023/09/24 05:50:25;;;;;;;3.65;2.15;;;;;;;;;;2090558;28;20057;-58
2023/09/24 05:51:25;;;;;;;4.15;2.30;;;;;;;;;;2090239;28;20534;-59
2023/09/24 05:52:26;;;;;;;4.18;2.10;;;;;;;;;;2090040;28;20037;-59
2023/09/24 05:53:27;;;;;;;3.47;1.80;;;;;;;;;;2090264;28;20037;-59
2023/09/24 05:54:28;;;;;;;5.13;2.00;;;;;;;;;;2090380;28;20041;-58
2023/09/24 05:55:28;;;;;;;3.95;2.40;;;;;;;;;;2089968;28;20477;-59
2023/09/24 05:56:29;;;;;;;3.22;1.92;;;;;;;;;;2089849;28;20048;-59
2023/09/24 05:57:30;;;;;;;5.45;2.47;;;;;;;;;;2090494;28;20041;-58
2023/09/24 05:58:30;;;;;;;3.35;1.95;;;;;;;;;;2090075;28;20033;-59
2023/09/24 05:59:31;;;;;;;3.83;2.15;;;;;;;;;;2090012;28;20056;-58
2023/09/24 06:00:34;;;;;;;5.25;2.00;;;;;;;;;;2090196;28;20453;-58
2023/09/24 06:01:35;;;;;;;3.70;2.17;;;;;;;;;;2090052;28;20135;-59
2023/09/24 06:02:36;;;;;;;4.05;2.05;;;;;;;;;;2090526;28;20472;-59
2023/09/24 06:03:37;;;;;;;4.25;2.20;;;;;;;;;;2090044;28;20028;-58
2023/09/24 06:04:37;;;;;;;4.38;2.13;;;;;;;;;;2090117;28;20033;-58
2023/09/24 06:05:38;;;;;;;3.80;2.15;;;;;;;;;;2089922;28;20060;-59